sensor_id;sensor_type;location;lat;lon;timestamp;pressure;altitude;pressure_sealevel;temperature;humidity
20656;BME280;10487;53.320;8.672;2022-07-29T00:01:50;101772.81;;;16.77;44.79
20656;BME280;10487;53.320;8.672;2022-07-29T00:04:19;101765.75;;;16.76;44.70
20656;BME280;10487;53.320;8.672;2022-07-29T00:06:47;101776.47;;;16.76;44.70
20656;BME280;10487;53.320;8.672;2022-07-29T00:09:13;101775.59;;;16.76;44.83
20656;BME280;10487;53.320;8.672;2022-07-29T00:11:40;101771.19;;;16.75;44.75
20656;BME280;10487;53.320;8.672;2022-07-29T00:14:07;101767.75;;;16.73;44.85
20656;BME280;10487;53.320;8.672;2022-07-29T00:16:34;101767.19;;;16.68;44.90
20656;BME280;10487;53.320;8.672;2022-07-29T00:19:02;101766.53;;;16.64;44.81
20656;BME280;10487;53.320;8.672;2022-07-29T00:21:29;101760.41;;;16.62;44.91
20656;BME280;10487;53.320;8.672;2022-07-29T00:23:55;101758.69;;;16.61;44.98
20656;BME280;10487;53.320;8.672;2022-07-29T00:26:22;101749.13;;;16.57;44.98
20656;BME280;10487;53.320;8.672;2022-07-29T00:28:49;101750.28;;;16.53;44.93
20656;BME280;10487;53.320;8.672;2022-07-29T00:31:15;101748.72;;;16.49;45.06
20656;BME280;10487;53.320;8.672;2022-07-29T00:33:42;101755.19;;;16.45;45.12
20656;BME280;10487;53.320;8.672;2022-07-29T00:36:09;101747.41;;;16.42;45.23
20656;BME280;10487;53.320;8.672;2022-07-29T00:38:35;101743.94;;;16.40;45.18
20656;BME280;10487;53.320;8.672;2022-07-29T00:41:02;101735.16;;;16.38;45.26
20656;BME280;10487;53.320;8.672;2022-07-29T00:43:29;101737.81;;;16.38;45.39
20656;BME280;10487;53.320;8.672;2022-07-29T00:45:55;101734.28;;;16.38;45.29
20656;BME280;10487;53.320;8.672;2022-07-29T00:48:22;101726.38;;;16.36;45.24
20656;BME280;10487;53.320;8.672;2022-07-29T00:50:49;101722.94;;;16.34;45.27
20656;BME280;10487;53.320;8.672;2022-07-29T00:53:16;101727.53;;;16.32;45.43
20656;BME280;10487;53.320;8.672;2022-07-29T00:55:43;101724.19;;;16.29;45.42
20656;BME280;10487;53.320;8.672;2022-07-29T00:58:12;101728.00;;;16.25;45.36
20656;BME280;10487;53.320;8.672;2022-07-29T01:00:39;101723.72;;;16.22;45.51
20656;BME280;10487;53.320;8.672;2022-07-29T01:03:07;101727.44;;;16.19;45.58
20656;BME280;10487;53.320;8.672;2022-07-29T01:05:34;101713.28;;;16.17;45.64
20656;BME280;10487;53.320;8.672;2022-07-29T01:08:17;101723.19;;;16.15;45.54
20656;BME280;10487;53.320;8.672;2022-07-29T01:10:45;101720.63;;;16.14;45.59
20656;BME280;10487;53.320;8.672;2022-07-29T01:13:14;101709.19;;;16.12;45.59
20656;BME280;10487;53.320;8.672;2022-07-29T01:15:49;101721.78;;;16.10;45.63
20656;BME280;10487;53.320;8.672;2022-07-29T01:18:31;101711.28;;;16.07;45.61
20656;BME280;10487;53.320;8.672;2022-07-29T01:21:23;101709.66;;;16.04;45.78
20656;BME280;10487;53.320;8.672;2022-07-29T01:29:30;101688.06;;;15.93;45.87
20656;BME280;10487;53.320;8.672;2022-07-29T01:32:08;101686.53;;;15.89;45.89
20656;BME280;10487;53.320;8.672;2022-07-29T01:37:55;101691.19;;;15.86;45.90
20656;BME280;10487;53.320;8.672;2022-07-29T01:42:58;101685.25;;;15.81;45.98
20656;BME280;10487;53.320;8.672;2022-07-29T01:45:53;101687.09;;;15.80;46.11
20656;BME280;10487;53.320;8.672;2022-07-29T01:48:26;101682.59;;;15.81;46.02
20656;BME280;10487;53.320;8.672;2022-07-29T01:51:07;101670.97;;;15.82;46.10
20656;BME280;10487;53.320;8.672;2022-07-29T01:56:33;101673.81;;;15.79;46.04
20656;BME280;10487;53.320;8.672;2022-07-29T01:59:03;101660.59;;;15.77;46.04
20656;BME280;10487;53.320;8.672;2022-07-29T02:01:32;101663.31;;;15.76;46.05
20656;BME280;10487;53.320;8.672;2022-07-29T02:04:02;101655.53;;;15.73;46.15
20656;BME280;10487;53.320;8.672;2022-07-29T02:06:31;101655.59;;;15.71;46.19
20656;BME280;10487;53.320;8.672;2022-07-29T02:08:59;101648.72;;;15.67;46.12
20656;BME280;10487;53.320;8.672;2022-07-29T02:11:27;101649.59;;;15.68;46.26
20656;BME280;10487;53.320;8.672;2022-07-29T02:13:56;101639.88;;;15.67;46.19
20656;BME280;10487;53.320;8.672;2022-07-29T02:16:26;101639.00;;;15.66;46.35
20656;BME280;10487;53.320;8.672;2022-07-29T02:18:56;101639.00;;;15.66;46.31
20656;BME280;10487;53.320;8.672;2022-07-29T02:21:25;101643.56;;;15.64;46.41
20656;BME280;10487;53.320;8.672;2022-07-29T02:23:54;101640.03;;;15.64;46.42
20656;BME280;10487;53.320;8.672;2022-07-29T02:26:24;101633.00;;;15.63;46.47
20656;BME280;10487;53.320;8.672;2022-07-29T02:28:54;101627.75;;;15.61;46.39
20656;BME280;10487;53.320;8.672;2022-07-29T02:31:23;101617.94;;;15.62;46.48
20656;BME280;10487;53.320;8.672;2022-07-29T02:33:53;101620.59;;;15.62;46.54
20656;BME280;10487;53.320;8.672;2022-07-29T02:36:22;101620.59;;;15.62;46.44
20656;BME280;10487;53.320;8.672;2022-07-29T02:38:50;101624.19;;;15.61;46.51
20656;BME280;10487;53.320;8.672;2022-07-29T02:41:46;101622.50;;;15.60;46.47
20656;BME280;10487;53.320;8.672;2022-07-29T02:44:12;101621.81;;;15.56;46.64
20656;BME280;10487;53.320;8.672;2022-07-29T02:46:46;101623.72;;;15.54;46.66
20656;BME280;10487;53.320;8.672;2022-07-29T02:51:55;101615.88;;;15.51;46.68
20656;BME280;10487;53.320;8.672;2022-07-29T02:55:30;101621.22;;;15.51;46.78
20656;BME280;10487;53.320;8.672;2022-07-29T02:57:47;101619.31;;;15.53;46.54
20656;BME280;10487;53.320;8.672;2022-07-29T03:00:22;101621.06;;;15.54;46.69
20656;BME280;10487;53.320;8.672;2022-07-29T03:02:52;101630.84;;;15.53;46.67
20656;BME280;10487;53.320;8.672;2022-07-29T03:05:20;101628.94;;;15.55;46.68
20656;BME280;10487;53.320;8.672;2022-07-29T03:07:55;101630.69;;;15.57;46.75
20656;BME280;10487;53.320;8.672;2022-07-29T03:10:23;101627.16;;;15.56;46.75
20656;BME280;10487;53.320;8.672;2022-07-29T03:12:50;101625.34;;;15.57;46.75
20656;BME280;10487;53.320;8.672;2022-07-29T03:15:18;101629.75;;;15.58;46.76
20656;BME280;10487;53.320;8.672;2022-07-29T03:17:45;101627.84;;;15.60;46.81
20656;BME280;10487;53.320;8.672;2022-07-29T03:20:12;101629.47;;;15.62;46.77
20656;BME280;10487;53.320;8.672;2022-07-29T03:22:40;101639.19;;;15.63;46.81
20656;BME280;10487;53.320;8.672;2022-07-29T03:25:10;101636.50;;;15.63;46.86
20656;BME280;10487;53.320;8.672;2022-07-29T03:27:37;101635.47;;;15.66;47.00
20656;BME280;10487;53.320;8.672;2022-07-29T03:30:05;101635.47;;;15.66;46.91
20656;BME280;10487;53.320;8.672;2022-07-29T03:32:34;101644.44;;;15.65;46.83
20656;BME280;10487;53.320;8.672;2022-07-29T03:35:01;101634.63;;;15.65;46.83
20656;BME280;10487;53.320;8.672;2022-07-29T03:37:28;101629.28;;;15.65;46.92
20656;BME280;10487;53.320;8.672;2022-07-29T03:39:57;101632.03;;;15.64;46.88
20656;BME280;10487;53.320;8.672;2022-07-29T03:42:25;101631.28;;;15.62;46.95
20656;BME280;10487;53.320;8.672;2022-07-29T03:45:02;101625.16;;;15.60;47.00
20656;BME280;10487;53.320;8.672;2022-07-29T03:47:30;101618.97;;;15.59;46.95
20656;BME280;10487;53.320;8.672;2022-07-29T03:50:15;101613.75;;;15.58;47.02
20656;BME280;10487;53.320;8.672;2022-07-29T03:52:43;101616.47;;;15.56;47.13
20656;BME280;10487;53.320;8.672;2022-07-29T03:55:11;101620.88;;;15.57;47.05
20656;BME280;10487;53.320;8.672;2022-07-29T03:57:39;101618.09;;;15.59;47.06
20656;BME280;10487;53.320;8.672;2022-07-29T04:00:07;101618.97;;;15.59;46.99
20656;BME280;10487;53.320;8.672;2022-07-29T04:02:33;101623.44;;;15.59;47.04
20656;BME280;10487;53.320;8.672;2022-07-29T04:05:00;101629.66;;;15.59;47.12
20656;BME280;10487;53.320;8.672;2022-07-29T04:07:27;101622.50;;;15.60;47.12
20656;BME280;10487;53.320;8.672;2022-07-29T04:09:54;101628.59;;;15.62;47.13
20656;BME280;10487;53.320;8.672;2022-07-29T04:12:20;101635.47;;;15.66;47.14
20656;BME280;10487;53.320;8.672;2022-07-29T04:14:47;101625.56;;;15.68;47.19
20656;BME280;10487;53.320;8.672;2022-07-29T04:17:15;101627.19;;;15.70;47.24
20656;BME280;10487;53.320;8.672;2022-07-29T04:19:41;101627.09;;;15.72;47.13
20656;BME280;10487;53.320;8.672;2022-07-29T04:22:08;101624.44;;;15.72;47.28
20656;BME280;10487;53.320;8.672;2022-07-29T04:24:34;101613.75;;;15.72;47.24
20656;BME280;10487;53.320;8.672;2022-07-29T04:27:01;101622.63;;;15.72;47.22
20656;BME280;10487;53.320;8.672;2022-07-29T04:29:28;101620.81;;;15.73;47.25
20656;BME280;10487;53.320;8.672;2022-07-29T04:31:54;101616.81;;;15.80;47.46
20656;BME280;10487;53.320;8.672;2022-07-29T04:34:21;101616.06;;;15.92;47.37
20656;BME280;10487;53.320;8.672;2022-07-29T04:36:53;101619.31;;;15.97;47.24
20656;BME280;10487;53.320;8.672;2022-07-29T04:39:19;101622.94;;;15.96;47.28
20656;BME280;10487;53.320;8.672;2022-07-29T04:41:49;101625.53;;;15.97;47.32
20656;BME280;10487;53.320;8.672;2022-07-29T04:44:17;101616.53;;;15.98;47.35
20656;BME280;10487;53.320;8.672;2022-07-29T04:46:45;101620.06;;;15.99;47.45
20656;BME280;10487;53.320;8.672;2022-07-29T04:49:11;101619.03;;;16.01;47.26
20656;BME280;10487;53.320;8.672;2022-07-29T04:51:39;101619.78;;;16.03;47.46
20656;BME280;10487;53.320;8.672;2022-07-29T04:54:06;101620.47;;;16.07;47.30
20656;BME280;10487;53.320;8.672;2022-07-29T04:56:32;101621.97;;;16.11;47.45
20656;BME280;10487;53.320;8.672;2022-07-29T04:58:59;101628.09;;;16.13;47.45
20656;BME280;10487;53.320;8.672;2022-07-29T05:01:26;101619.88;;;16.16;47.42
20656;BME280;10487;53.320;8.672;2022-07-29T05:03:52;101615.22;;;16.19;47.48
20656;BME280;10487;53.320;8.672;2022-07-29T05:06:25;101622.94;;;16.24;47.44
20656;BME280;10487;53.320;8.672;2022-07-29T05:08:52;101623.59;;;16.28;47.41
20656;BME280;10487;53.320;8.672;2022-07-29T05:11:18;101615.31;;;16.32;47.42
20656;BME280;10487;53.320;8.672;2022-07-29T05:13:48;101614.16;;;16.36;47.43
20656;BME280;10487;53.320;8.672;2022-07-29T05:16:15;101615.78;;;16.39;47.48
20656;BME280;10487;53.320;8.672;2022-07-29T05:18:41;101620.81;;;16.43;47.49
20656;BME280;10487;53.320;8.672;2022-07-29T05:21:08;101611.63;;;16.47;47.49
20656;BME280;10487;53.320;8.672;2022-07-29T05:23:35;101608.78;;;16.50;47.44
20656;BME280;10487;53.320;8.672;2022-07-29T05:26:02;101607.75;;;16.53;47.38
20656;BME280;10487;53.320;8.672;2022-07-29T05:28:28;101606.69;;;16.55;47.50
20656;BME280;10487;53.320;8.672;2022-07-29T05:30:55;101611.84;;;16.58;47.39
20656;BME280;10487;53.320;8.672;2022-07-29T05:33:22;101607.28;;;16.60;47.61
20656;BME280;10487;53.320;8.672;2022-07-29T05:36:03;101607.81;;;16.65;47.42
20656;BME280;10487;53.320;8.672;2022-07-29T05:38:32;101611.25;;;16.67;47.36
20656;BME280;10487;53.320;8.672;2022-07-29T05:40:59;101605.72;;;16.70;47.37
20656;BME280;10487;53.320;8.672;2022-07-29T05:43:27;101610.88;;;16.73;47.41
20656;BME280;10487;53.320;8.672;2022-07-29T05:45:54;101607.03;;;16.77;47.54
20656;BME280;10487;53.320;8.672;2022-07-29T05:48:21;101601.59;;;16.79;47.67
20656;BME280;10487;53.320;8.672;2022-07-29T05:50:47;101598.63;;;16.83;47.59
20656;BME280;10487;53.320;8.672;2022-07-29T05:53:14;101597.44;;;16.88;47.39
20656;BME280;10487;53.320;8.672;2022-07-29T05:55:46;101599.94;;;16.91;47.59
20656;BME280;10487;53.320;8.672;2022-07-29T05:58:13;101604.09;;;16.95;47.73
20656;BME280;10487;53.320;8.672;2022-07-29T06:00:40;101596.75;;;16.98;47.71
20656;BME280;10487;53.320;8.672;2022-07-29T06:03:07;101595.56;;;17.02;47.75
20656;BME280;10487;53.320;8.672;2022-07-29T06:05:33;101593.56;;;17.06;47.63
20656;BME280;10487;53.320;8.672;2022-07-29T06:08:00;101596.78;;;17.11;47.59
20656;BME280;10487;53.320;8.672;2022-07-29T06:10:27;101592.06;;;17.14;47.38
20656;BME280;10487;53.320;8.672;2022-07-29T06:12:53;101605.06;;;17.20;47.55
20656;BME280;10487;53.320;8.672;2022-07-29T06:15:20;101614.50;;;17.26;47.70
20656;BME280;10487;53.320;8.672;2022-07-29T06:17:47;101612.19;;;17.34;47.55
20656;BME280;10487;53.320;8.672;2022-07-29T06:20:26;101616.22;;;17.39;47.64
20656;BME280;10487;53.320;8.672;2022-07-29T06:22:56;101612.28;;;17.45;47.54
20656;BME280;10487;53.320;8.672;2022-07-29T06:25:23;101625.28;;;17.51;47.38
20656;BME280;10487;53.320;8.672;2022-07-29T06:27:49;101619.50;;;17.57;47.25
20656;BME280;10487;53.320;8.672;2022-07-29T06:30:16;101617.38;;;17.62;47.36
20656;BME280;10487;53.320;8.672;2022-07-29T06:32:43;101619.66;;;17.68;47.51
20656;BME280;10487;53.320;8.672;2022-07-29T06:35:09;101621.06;;;17.74;47.57
20656;BME280;10487;53.320;8.672;2022-07-29T06:37:56;101619.75;;;17.79;47.20
20656;BME280;10487;53.320;8.672;2022-07-29T06:40:25;101615.69;;;17.86;47.51
20656;BME280;10487;53.320;8.672;2022-07-29T06:43:10;101621.50;;;17.93;47.48
20656;BME280;10487;53.320;8.672;2022-07-29T06:45:37;101614.94;;;17.97;47.35
20656;BME280;10487;53.320;8.672;2022-07-29T06:48:08;101610.13;;;18.02;47.62
20656;BME280;10487;53.320;8.672;2022-07-29T06:50:35;101607.22;;;18.05;47.48
20656;BME280;10487;53.320;8.672;2022-07-29T06:53:03;101605.28;;;18.07;47.18
20656;BME280;10487;53.320;8.672;2022-07-29T06:55:29;101599.59;;;18.11;47.36
20656;BME280;10487;53.320;8.672;2022-07-29T06:57:56;101601.13;;;18.16;47.53
20656;BME280;10487;53.320;8.672;2022-07-29T07:00:23;101603.47;;;18.20;47.43
20656;BME280;10487;53.320;8.672;2022-07-29T07:02:50;101604.88;;;18.26;47.48
20656;BME280;10487;53.320;8.672;2022-07-29T07:05:16;101605.47;;;18.29;47.42
20656;BME280;10487;53.320;8.672;2022-07-29T07:07:43;101617.59;;;18.35;47.58
20656;BME280;10487;53.320;8.672;2022-07-29T07:10:09;101613.63;;;18.40;47.31
20656;BME280;10487;53.320;8.672;2022-07-29T07:12:36;101615.88;;;18.46;47.47
20656;BME280;10487;53.320;8.672;2022-07-29T07:15:03;101617.38;;;18.50;47.43
20656;BME280;10487;53.320;8.672;2022-07-29T07:17:30;101613.81;;;18.62;47.40
20656;BME280;10487;53.320;8.672;2022-07-29T07:19:57;101618.09;;;18.89;47.63
20656;BME280;10487;53.320;8.672;2022-07-29T07:22:23;101617.78;;;19.17;47.58
20656;BME280;10487;53.320;8.672;2022-07-29T07:24:50;101611.53;;;19.40;47.58
20656;BME280;10487;53.320;8.672;2022-07-29T07:27:16;101614.91;;;19.55;47.13
20656;BME280;10487;53.320;8.672;2022-07-29T07:29:43;101612.47;;;19.63;47.14
20656;BME280;10487;53.320;8.672;2022-07-29T07:32:09;101622.03;;;19.67;47.25
20656;BME280;10487;53.320;8.672;2022-07-29T07:34:36;101620.94;;;19.69;47.23
20656;BME280;10487;53.320;8.672;2022-07-29T07:37:05;101616.38;;;19.70;47.19
20656;BME280;10487;53.320;8.672;2022-07-29T07:39:31;101614.69;;;19.69;47.22
20656;BME280;10487;53.320;8.672;2022-07-29T07:41:58;101614.69;;;19.69;47.17
20656;BME280;10487;53.320;8.672;2022-07-29T07:44:25;101614.69;;;19.69;47.21
20656;BME280;10487;53.320;8.672;2022-07-29T07:46:52;101612.75;;;19.71;47.46
20656;BME280;10487;53.320;8.672;2022-07-29T07:49:20;101603.72;;;19.72;47.23
20656;BME280;10487;53.320;8.672;2022-07-29T07:51:47;101617.66;;;19.77;47.21
20656;BME280;10487;53.320;8.672;2022-07-29T07:54:16;101609.22;;;19.81;47.35
20656;BME280;10487;53.320;8.672;2022-07-29T07:56:46;101615.97;;;19.87;47.36
20656;BME280;10487;53.320;8.672;2022-07-29T07:59:18;101612.78;;;19.93;47.25
20656;BME280;10487;53.320;8.672;2022-07-29T08:01:45;101611.31;;;20.00;47.04
20656;BME280;10487;53.320;8.672;2022-07-29T08:04:21;101617.19;;;20.05;47.25
20656;BME280;10487;53.320;8.672;2022-07-29T08:06:55;101618.41;;;20.12;47.31
20656;BME280;10487;53.320;8.672;2022-07-29T08:09:23;101621.47;;;20.19;47.21
20656;BME280;10487;53.320;8.672;2022-07-29T08:11:56;101622.59;;;20.27;47.06
20656;BME280;10487;53.320;8.672;2022-07-29T08:14:24;101617.47;;;20.35;47.05
20656;BME280;10487;53.320;8.672;2022-07-29T08:16:50;101617.00;;;20.41;47.19
20656;BME280;10487;53.320;8.672;2022-07-29T08:19:18;101618.94;;;20.50;46.92
20656;BME280;10487;53.320;8.672;2022-07-29T08:21:44;101618.19;;;20.59;46.87
20656;BME280;10487;53.320;8.672;2022-07-29T08:24:11;101612.91;;;20.69;46.89
20656;BME280;10487;53.320;8.672;2022-07-29T08:26:56;101606.91;;;20.77;46.80
20656;BME280;10487;53.320;8.672;2022-07-29T08:29:23;101611.53;;;20.86;46.82
20656;BME280;10487;53.320;8.672;2022-07-29T08:31:49;101606.38;;;20.94;46.81
20656;BME280;10487;53.320;8.672;2022-07-29T08:34:16;101611.97;;;21.02;46.80
20656;BME280;10487;53.320;8.672;2022-07-29T08:36:43;101601.59;;;21.08;46.74
20656;BME280;10487;53.320;8.672;2022-07-29T08:39:16;101605.22;;;21.18;46.77
20656;BME280;10487;53.320;8.672;2022-07-29T08:41:42;101608.97;;;21.27;46.77
20656;BME280;10487;53.320;8.672;2022-07-29T08:44:22;101607.94;;;21.39;46.56
20656;BME280;10487;53.320;8.672;2022-07-29T08:46:56;101609.56;;;21.51;46.62
20656;BME280;10487;53.320;8.672;2022-07-29T08:49:23;101606.97;;;21.61;46.46
20656;BME280;10487;53.320;8.672;2022-07-29T08:51:51;101610.72;;;21.69;46.40
20656;BME280;10487;53.320;8.672;2022-07-29T08:54:21;101610.19;;;21.75;46.54
20656;BME280;10487;53.320;8.672;2022-07-29T08:56:49;101608.94;;;21.79;46.42
20656;BME280;10487;53.320;8.672;2022-07-29T08:59:19;101611.16;;;21.85;46.66
20656;BME280;10487;53.320;8.672;2022-07-29T09:01:48;101613.44;;;21.90;46.21
20656;BME280;10487;53.320;8.672;2022-07-29T09:04:20;101612.03;;;21.96;46.14
20656;BME280;10487;53.320;8.672;2022-07-29T09:06:49;101610.53;;;22.03;46.19
20656;BME280;10487;53.320;8.672;2022-07-29T09:09:17;101615.25;;;22.10;46.09
20656;BME280;10487;53.320;8.672;2022-07-29T09:11:44;101619.84;;;22.19;46.23
20656;BME280;10487;53.320;8.672;2022-07-29T09:14:12;101609.34;;;22.26;46.16
20656;BME280;10487;53.320;8.672;2022-07-29T09:19:28;101609.44;;;22.45;45.96
20656;BME280;10487;53.320;8.672;2022-07-29T09:21:58;101612.28;;;22.53;45.81
20656;BME280;10487;53.320;8.672;2022-07-29T09:24:46;101607.06;;;22.61;45.84
20656;BME280;10487;53.320;8.672;2022-07-29T09:27:24;101609.69;;;22.72;45.79
20656;BME280;10487;53.320;8.672;2022-07-29T09:29:57;101606.88;;;22.83;45.73
20656;BME280;10487;53.320;8.672;2022-07-29T09:32:24;101608.72;;;22.92;45.62
20656;BME280;10487;53.320;8.672;2022-07-29T09:35:19;101599.63;;;23.03;45.90
20656;BME280;10487;53.320;8.672;2022-07-29T09:37:47;101604.75;;;23.15;45.59
20656;BME280;10487;53.320;8.672;2022-07-29T09:40:16;101602.75;;;23.27;45.26
20656;BME280;10487;53.320;8.672;2022-07-29T09:42:44;101600.81;;;23.39;45.26
20656;BME280;10487;53.320;8.672;2022-07-29T09:45:11;101589.56;;;23.53;45.49
20656;BME280;10487;53.320;8.672;2022-07-29T09:47:42;101591.00;;;23.66;45.10
20656;BME280;10487;53.320;8.672;2022-07-29T09:50:11;101600.34;;;23.81;45.02
20656;BME280;10487;53.320;8.672;2022-07-29T09:52:49;101585.78;;;23.92;45.33
20656;BME280;10487;53.320;8.672;2022-07-29T09:55:17;101590.63;;;23.98;44.89
20656;BME280;10487;53.320;8.672;2022-07-29T09:57:46;101593.84;;;24.02;45.23
20656;BME280;10487;53.320;8.672;2022-07-29T10:00:15;101585.63;;;24.03;44.81
20656;BME280;10487;53.320;8.672;2022-07-29T10:02:45;101588.03;;;24.06;45.02
20656;BME280;10487;53.320;8.672;2022-07-29T10:05:26;101581.19;;;24.12;44.87
20656;BME280;10487;53.320;8.672;2022-07-29T10:08:02;101584.28;;;24.17;44.91
20656;BME280;10487;53.320;8.672;2022-07-29T10:10:33;101579.28;;;24.22;44.63
20656;BME280;10487;53.320;8.672;2022-07-29T10:13:05;101578.84;;;24.26;44.96
20656;BME280;10487;53.320;8.672;2022-07-29T10:15:39;101581.94;;;24.31;44.73
20656;BME280;10487;53.320;8.672;2022-07-29T10:18:12;101578.66;;;24.37;44.50
20656;BME280;10487;53.320;8.672;2022-07-29T10:20:40;101578.19;;;24.42;44.56
20656;BME280;10487;53.320;8.672;2022-07-29T10:23:07;101570.66;;;24.45;44.31
20656;BME280;10487;53.320;8.672;2022-07-29T10:25:35;101567.50;;;24.50;44.48
20656;BME280;10487;53.320;8.672;2022-07-29T10:28:01;101571.56;;;24.54;44.50
20656;BME280;10487;53.320;8.672;2022-07-29T10:30:29;101566.56;;;24.59;44.68
20656;BME280;10487;53.320;8.672;2022-07-29T10:33:05;101566.09;;;24.64;44.47
20656;BME280;10487;53.320;8.672;2022-07-29T10:40:49;101558.78;;;24.74;44.13
20656;BME280;10487;53.320;8.672;2022-07-29T10:43:38;101558.47;;;24.77;44.17
20656;BME280;10487;53.320;8.672;2022-07-29T10:46:08;101558.22;;;24.80;44.10
20656;BME280;10487;53.320;8.672;2022-07-29T11:02:43;101557.44;;;25.05;43.84
20656;BME280;10487;53.320;8.672;2022-07-29T11:05:15;101550.22;;;25.14;43.46
20656;BME280;10487;53.320;8.672;2022-07-29T11:08:28;101560.16;;;25.23;43.41
20656;BME280;10487;53.320;8.672;2022-07-29T11:13:49;101554.84;;;25.39;43.64
20656;BME280;10487;53.320;8.672;2022-07-29T11:16:19;101553.38;;;25.44;43.31
20656;BME280;10487;53.320;8.672;2022-07-29T11:21:44;101548.56;;;25.56;43.21
20656;BME280;10487;53.320;8.672;2022-07-29T11:24:31;101550.19;;;25.66;43.24
20656;BME280;10487;53.320;8.672;2022-07-29T11:27:19;101553.63;;;25.77;43.01
20656;BME280;10487;53.320;8.672;2022-07-29T11:29:56;101549.25;;;25.84;42.98
20656;BME280;10487;53.320;8.672;2022-07-29T11:32:25;101547.28;;;25.94;42.68
20656;BME280;10487;53.320;8.672;2022-07-29T11:35:22;101548.38;;;26.09;42.95
20656;BME280;10487;53.320;8.672;2022-07-29T11:38:27;101539.97;;;26.20;42.77
20656;BME280;10487;53.320;8.672;2022-07-29T11:41:25;101541.19;;;26.25;42.63
20656;BME280;10487;53.320;8.672;2022-07-29T11:43:55;101546.66;;;26.33;42.35
20656;BME280;10487;53.320;8.672;2022-07-29T11:46:47;101546.38;;;26.45;42.50
20656;BME280;10487;53.320;8.672;2022-07-29T11:49:43;101540.09;;;26.52;42.39
20656;BME280;10487;53.320;8.672;2022-07-29T11:52:13;101541.97;;;26.60;42.28
20656;BME280;10487;53.320;8.672;2022-07-29T11:54:42;101530.16;;;26.69;42.15
20656;BME280;10487;53.320;8.672;2022-07-29T11:57:24;101537.00;;;26.81;42.04
20656;BME280;10487;53.320;8.672;2022-07-29T12:00:07;101543.47;;;26.96;42.21
20656;BME280;10487;53.320;8.672;2022-07-29T12:02:41;101541.94;;;27.02;42.01
20656;BME280;10487;53.320;8.672;2022-07-29T12:05:10;101532.63;;;27.04;42.03
20656;BME280;10487;53.320;8.672;2022-07-29T12:07:39;101531.56;;;27.05;42.11
20656;BME280;10487;53.320;8.672;2022-07-29T12:10:12;101531.56;;;27.05;41.95
20656;BME280;10487;53.320;8.672;2022-07-29T12:12:55;101535.16;;;27.06;42.02
20656;BME280;10487;53.320;8.672;2022-07-29T12:15:22;101543.13;;;27.07;41.94
20656;BME280;10487;53.320;8.672;2022-07-29T12:18:12;101529.72;;;27.06;42.20
20656;BME280;10487;53.320;8.672;2022-07-29T12:20:47;101539.72;;;22.05;41.86
20656;BME280;10487;53.320;8.672;2022-07-29T12:23:15;101540.75;;;22.04;41.98
20656;BME280;10487;53.320;8.672;2022-07-29T12:25:44;101543.28;;;21.97;41.90
20656;BME280;10487;53.320;8.672;2022-07-29T12:28:15;101539.53;;;21.90;41.81
20656;BME280;10487;53.320;8.672;2022-07-29T12:30:52;101537.47;;;21.84;41.89
20656;BME280;10487;53.320;8.672;2022-07-29T12:33:23;101534.94;;;21.83;41.84
20656;BME280;10487;53.320;8.672;2022-07-29T12:35:53;101542.25;;;21.82;41.84
20656;BME280;10487;53.320;8.672;2022-07-29T12:38:40;101538.00;;;21.80;41.80
20656;BME280;10487;53.320;8.672;2022-07-29T12:41:07;101537.50;;;21.76;41.82
20656;BME280;10487;53.320;8.672;2022-07-29T12:43:33;101527.78;;;21.74;41.84
20656;BME280;10487;53.320;8.672;2022-07-29T12:46:13;101523.22;;;21.74;41.64
20656;BME280;10487;53.320;8.672;2022-07-29T12:48:42;101528.97;;;21.71;41.54
20656;BME280;10487;53.320;8.672;2022-07-29T12:51:10;101530.16;;;21.69;41.69
20656;BME280;10487;53.320;8.672;2022-07-29T12:53:38;101520.47;;;21.66;41.63
20656;BME280;10487;53.320;8.672;2022-07-29T12:56:06;101535.91;;;21.66;41.53
20656;BME280;10487;53.320;8.672;2022-07-29T12:58:52;101524.88;;;21.67;41.31
20656;BME280;10487;53.320;8.672;2022-07-29T13:01:20;101519.44;;;21.67;41.54
20656;BME280;10487;53.320;8.672;2022-07-29T13:03:53;101517.56;;;21.68;41.47
20656;BME280;10487;53.320;8.672;2022-07-29T13:06:38;101518.44;;;21.68;41.49
20656;BME280;10487;53.320;8.672;2022-07-29T13:09:18;101518.25;;;21.70;41.42
20656;BME280;10487;53.320;8.672;2022-07-29T13:11:47;101516.25;;;21.72;41.53
20656;BME280;10487;53.320;8.672;2022-07-29T13:14:35;101525.94;;;21.74;41.33
20656;BME280;10487;53.320;8.672;2022-07-29T13:22:03;101509.28;;;21.77;41.25
20656;BME280;10487;53.320;8.672;2022-07-29T13:24:30;101512.69;;;21.79;41.25
20656;BME280;10487;53.320;8.672;2022-07-29T13:26:57;101512.38;;;21.82;41.15
20656;BME280;10487;53.320;8.672;2022-07-29T13:29:23;101514.75;;;21.85;41.17
20656;BME280;10487;53.320;8.672;2022-07-29T13:31:56;101511.84;;;21.87;41.08
20656;BME280;10487;53.320;8.672;2022-07-29T13:34:24;101508.31;;;21.86;41.11
20656;BME280;10487;53.320;8.672;2022-07-29T13:36:50;101510.50;;;21.83;41.14
20656;BME280;10487;53.320;8.672;2022-07-29T13:39:17;101501.34;;;21.84;41.11
20656;BME280;10487;53.320;8.672;2022-07-29T13:41:44;101512.03;;;21.85;41.06
20656;BME280;10487;53.320;8.672;2022-07-29T13:44:10;101502.88;;;21.86;40.89
20656;BME280;10487;53.320;8.672;2022-07-29T13:46:37;101495.56;;;21.87;40.95
20656;BME280;10487;53.320;8.672;2022-07-29T13:49:05;101501.84;;;21.87;41.16
20656;BME280;10487;53.320;8.672;2022-07-29T13:51:32;101501.16;;;21.85;41.06
20656;BME280;10487;53.320;8.672;2022-07-29T13:53:59;101505.06;;;21.83;40.98
20656;BME280;10487;53.320;8.672;2022-07-29T13:56:25;101496.06;;;21.82;41.09
20656;BME280;10487;53.320;8.672;2022-07-29T13:58:52;101503.53;;;21.80;40.90